sensor_id;sensor_type;location;lat;lon;timestamp;P1;durP1;ratioP1;P2;durP2;ratioP2
34930;SDS011;21134;49.646;8.560;2023-07-08T00:00:07;6.47;;;3.20;;
34930;SDS011;21134;49.646;8.560;2023-07-08T00:02:36;9.07;;;3.17;;
34930;SDS011;21134;49.646;8.560;2023-07-08T00:05:02;5.97;;;2.60;;
34930;SDS011;21134;49.646;8.560;2023-07-08T00:07:29;6.47;;;2.80;;
34930;SDS011;21134;49.646;8.560;2023-07-08T00:09:56;7.70;;;2.65;;
34930;SDS011;21134;49.646;8.560;2023-07-08T00:12:22;4.72;;;2.28;;
34930;SDS011;21134;49.646;8.560;2023-07-08T00:14:49;6.45;;;3.08;;
34930;SDS011;21134;49.646;8.560;2023-07-08T00:17:17;10.15;;;2.63;;
34930;SDS011;21134;49.646;8.560;2023-07-08T00:19:43;6.13;;;3.10;;
34930;SDS011;21134;49.646;8.560;2023-07-08T00:22:11;4.22;;;2.40;;
34930;SDS011;21134;49.646;8.560;2023-07-08T00:24:39;6.53;;;3.20;;
34930;SDS011;21134;49.646;8.560;2023-07-08T00:27:07;6.07;;;3.00;;
34930;SDS011;21134;49.646;8.560;2023-07-08T00:29:36;6.13;;;2.83;;
34930;SDS011;21134;49.646;8.560;2023-07-08T00:32:07;8.00;;;3.05;;
34930;SDS011;21134;49.646;8.560;2023-07-08T00:34:37;6.25;;;2.17;;
34930;SDS011;21134;49.646;8.560;2023-07-08T00:37:03;6.88;;;3.13;;
34930;SDS011;21134;49.646;8.560;2023-07-08T00:39:30;5.30;;;3.17;;
34930;SDS011;21134;49.646;8.560;2023-07-08T00:41:56;14.55;;;3.20;;
34930;SDS011;21134;49.646;8.560;2023-07-08T00:44:25;6.10;;;2.60;;
34930;SDS011;21134;49.646;8.560;2023-07-08T00:47:02;4.43;;;2.35;;
34930;SDS011;21134;49.646;8.560;2023-07-08T00:49:33;5.00;;;3.10;;
34930;SDS011;21134;49.646;8.560;2023-07-08T00:52:18;10.18;;;3.13;;
34930;SDS011;21134;49.646;8.560;2023-07-08T00:54:48;8.55;;;2.75;;
34930;SDS011;21134;49.646;8.560;2023-07-08T00:57:15;6.85;;;2.78;;
34930;SDS011;21134;49.646;8.560;2023-07-08T00:59:44;7.63;;;3.25;;
34930;SDS011;21134;49.646;8.560;2023-07-08T01:02:13;7.90;;;2.92;;
34930;SDS011;21134;49.646;8.560;2023-07-08T01:04:46;9.20;;;2.90;;
34930;SDS011;21134;49.646;8.560;2023-07-08T01:07:16;5.63;;;2.50;;
34930;SDS011;21134;49.646;8.560;2023-07-08T01:09:48;8.82;;;2.97;;
34930;SDS011;21134;49.646;8.560;2023-07-08T01:12:19;9.18;;;2.33;;
34930;SDS011;21134;49.646;8.560;2023-07-08T01:14:49;7.53;;;2.13;;
34930;SDS011;21134;49.646;8.560;2023-07-08T01:17:19;7.70;;;2.67;;
34930;SDS011;21134;49.646;8.560;2023-07-08T01:19:48;5.55;;;2.25;;
34930;SDS011;21134;49.646;8.560;2023-07-08T01:22:17;4.63;;;2.50;;
34930;SDS011;21134;49.646;8.560;2023-07-08T01:24:44;4.28;;;2.53;;
34930;SDS011;21134;49.646;8.560;2023-07-08T01:27:11;8.80;;;3.03;;
34930;SDS011;21134;49.646;8.560;2023-07-08T01:29:40;4.97;;;2.78;;
34930;SDS011;21134;49.646;8.560;2023-07-08T01:32:09;4.55;;;2.55;;
34930;SDS011;21134;49.646;8.560;2023-07-08T01:34:43;8.73;;;3.28;;
34930;SDS011;21134;49.646;8.560;2023-07-08T01:37:26;3.30;;;2.28;;
34930;SDS011;21134;49.646;8.560;2023-07-08T01:39:55;7.28;;;2.75;;
34930;SDS011;21134;49.646;8.560;2023-07-08T01:42:21;9.38;;;2.70;;
34930;SDS011;21134;49.646;8.560;2023-07-08T01:44:48;7.95;;;3.42;;
34930;SDS011;21134;49.646;8.560;2023-07-08T01:47:16;7.55;;;2.78;;
34930;SDS011;21134;49.646;8.560;2023-07-08T01:49:46;5.20;;;2.35;;
34930;SDS011;21134;49.646;8.560;2023-07-08T01:52:14;8.10;;;2.95;;
34930;SDS011;21134;49.646;8.560;2023-07-08T01:54:44;6.53;;;3.05;;
34930;SDS011;21134;49.646;8.560;2023-07-08T01:57:10;5.72;;;2.60;;
34930;SDS011;21134;49.646;8.560;2023-07-08T01:59:37;9.80;;;3.47;;
34930;SDS011;21134;49.646;8.560;2023-07-08T02:02:03;10.50;;;3.13;;
34930;SDS011;21134;49.646;8.560;2023-07-08T02:04:30;7.53;;;2.63;;
34930;SDS011;21134;49.646;8.560;2023-07-08T02:06:57;6.93;;;3.30;;
34930;SDS011;21134;49.646;8.560;2023-07-08T02:09:25;7.22;;;2.88;;
34930;SDS011;21134;49.646;8.560;2023-07-08T02:11:54;7.32;;;2.88;;
34930;SDS011;21134;49.646;8.560;2023-07-08T02:14:21;7.80;;;3.33;;
34930;SDS011;21134;49.646;8.560;2023-07-08T02:16:48;7.50;;;3.17;;
34930;SDS011;21134;49.646;8.560;2023-07-08T02:19:15;4.18;;;2.30;;
34930;SDS011;21134;49.646;8.560;2023-07-08T02:21:41;3.58;;;2.17;;
34930;SDS011;21134;49.646;8.560;2023-07-08T02:24:08;6.35;;;3.13;;
34930;SDS011;21134;49.646;8.560;2023-07-08T02:26:34;6.50;;;2.72;;
34930;SDS011;21134;49.646;8.560;2023-07-08T02:29:02;7.25;;;3.20;;
34930;SDS011;21134;49.646;8.560;2023-07-08T02:31:29;6.78;;;2.85;;
34930;SDS011;21134;49.646;8.560;2023-07-08T02:33:55;5.32;;;3.17;;
34930;SDS011;21134;49.646;8.560;2023-07-08T02:36:22;8.68;;;2.67;;
34930;SDS011;21134;49.646;8.560;2023-07-08T02:38:48;11.35;;;3.30;;
34930;SDS011;21134;49.646;8.560;2023-07-08T02:41:15;8.73;;;3.20;;
34930;SDS011;21134;49.646;8.560;2023-07-08T02:43:42;8.52;;;3.30;;
34930;SDS011;21134;49.646;8.560;2023-07-08T02:46:10;8.90;;;2.88;;
34930;SDS011;21134;49.646;8.560;2023-07-08T02:48:36;8.10;;;3.67;;
34930;SDS011;21134;49.646;8.560;2023-07-08T02:51:03;8.05;;;2.92;;
34930;SDS011;21134;49.646;8.560;2023-07-08T02:53:31;6.63;;;3.00;;
34930;SDS011;21134;49.646;8.560;2023-07-08T02:55:58;7.53;;;3.45;;
34930;SDS011;21134;49.646;8.560;2023-07-08T02:58:24;4.25;;;2.50;;
34930;SDS011;21134;49.646;8.560;2023-07-08T03:00:51;7.47;;;3.33;;
34930;SDS011;21134;49.646;8.560;2023-07-08T03:03:19;10.15;;;3.42;;
34930;SDS011;21134;49.646;8.560;2023-07-08T03:05:53;5.40;;;3.03;;
34930;SDS011;21134;49.646;8.560;2023-07-08T03:08:20;6.63;;;3.17;;
34930;SDS011;21134;49.646;8.560;2023-07-08T03:10:47;5.22;;;3.17;;
34930;SDS011;21134;49.646;8.560;2023-07-08T03:13:13;8.10;;;2.85;;
34930;SDS011;21134;49.646;8.560;2023-07-08T03:15:40;4.45;;;2.45;;
34930;SDS011;21134;49.646;8.560;2023-07-08T03:18:10;4.03;;;2.45;;
34930;SDS011;21134;49.646;8.560;2023-07-08T03:20:40;5.93;;;2.60;;
34930;SDS011;21134;49.646;8.560;2023-07-08T03:23:10;7.07;;;2.90;;
34930;SDS011;21134;49.646;8.560;2023-07-08T03:25:36;6.93;;;2.85;;
34930;SDS011;21134;49.646;8.560;2023-07-08T03:28:03;10.75;;;3.38;;
34930;SDS011;21134;49.646;8.560;2023-07-08T03:30:31;6.43;;;2.95;;
34930;SDS011;21134;49.646;8.560;2023-07-08T03:32:57;7.28;;;3.50;;
34930;SDS011;21134;49.646;8.560;2023-07-08T03:35:24;5.07;;;2.60;;
34930;SDS011;21134;49.646;8.560;2023-07-08T03:37:52;9.35;;;3.00;;
34930;SDS011;21134;49.646;8.560;2023-07-08T03:40:19;7.35;;;2.90;;
34930;SDS011;21134;49.646;8.560;2023-07-08T03:42:45;7.00;;;3.15;;
34930;SDS011;21134;49.646;8.560;2023-07-08T03:45:12;4.30;;;2.80;;
34930;SDS011;21134;49.646;8.560;2023-07-08T03:47:38;7.32;;;3.10;;
34930;SDS011;21134;49.646;8.560;2023-07-08T03:50:05;5.75;;;2.92;;
34930;SDS011;21134;49.646;8.560;2023-07-08T03:52:37;5.13;;;2.78;;
34930;SDS011;21134;49.646;8.560;2023-07-08T03:55:05;5.25;;;2.30;;
34930;SDS011;21134;49.646;8.560;2023-07-08T03:57:34;10.43;;;3.33;;
34930;SDS011;21134;49.646;8.560;2023-07-08T04:00:00;3.08;;;1.73;;
34930;SDS011;21134;49.646;8.560;2023-07-08T04:02:27;2.60;;;2.17;;
34930;SDS011;21134;49.646;8.560;2023-07-08T04:04:53;6.72;;;3.50;;
34930;SDS011;21134;49.646;8.560;2023-07-08T04:07:19;5.38;;;3.15;;
34930;SDS011;21134;49.646;8.560;2023-07-08T04:09:46;5.88;;;3.35;;
34930;SDS011;21134;49.646;8.560;2023-07-08T04:12:16;8.90;;;2.88;;
34930;SDS011;21134;49.646;8.560;2023-07-08T04:14:44;5.75;;;3.00;;
34930;SDS011;21134;49.646;8.560;2023-07-08T04:17:10;9.25;;;3.40;;
34930;SDS011;21134;49.646;8.560;2023-07-08T04:19:38;7.00;;;3.45;;
34930;SDS011;21134;49.646;8.560;2023-07-08T04:22:05;8.70;;;3.63;;
34930;SDS011;21134;49.646;8.560;2023-07-08T04:24:32;12.23;;;3.08;;
34930;SDS011;21134;49.646;8.560;2023-07-08T04:26:58;5.45;;;2.67;;
34930;SDS011;21134;49.646;8.560;2023-07-08T04:29:26;7.28;;;3.38;;
34930;SDS011;21134;49.646;8.560;2023-07-08T04:31:53;9.57;;;3.55;;
34930;SDS011;21134;49.646;8.560;2023-07-08T04:34:19;9.73;;;3.83;;
34930;SDS011;21134;49.646;8.560;2023-07-08T04:36:46;9.18;;;3.95;;
34930;SDS011;21134;49.646;8.560;2023-07-08T04:39:13;5.35;;;3.10;;
34930;SDS011;21134;49.646;8.560;2023-07-08T04:41:40;10.45;;;3.10;;
34930;SDS011;21134;49.646;8.560;2023-07-08T04:44:08;7.88;;;3.70;;
34930;SDS011;21134;49.646;8.560;2023-07-08T04:46:38;7.55;;;3.15;;
34930;SDS011;21134;49.646;8.560;2023-07-08T04:49:07;8.95;;;3.45;;
34930;SDS011;21134;49.646;8.560;2023-07-08T04:51:35;8.10;;;3.10;;
34930;SDS011;21134;49.646;8.560;2023-07-08T04:54:01;6.22;;;3.03;;
34930;SDS011;21134;49.646;8.560;2023-07-08T04:56:34;8.02;;;2.90;;
34930;SDS011;21134;49.646;8.560;2023-07-08T04:59:03;5.28;;;2.53;;
34930;SDS011;21134;49.646;8.560;2023-07-08T05:01:30;5.28;;;2.85;;
34930;SDS011;21134;49.646;8.560;2023-07-08T05:03:58;4.95;;;2.33;;
34930;SDS011;21134;49.646;8.560;2023-07-08T05:06:25;8.05;;;3.05;;
34930;SDS011;21134;49.646;8.560;2023-07-08T05:08:51;7.25;;;3.33;;
34930;SDS011;21134;49.646;8.560;2023-07-08T05:11:18;5.95;;;2.80;;
34930;SDS011;21134;49.646;8.560;2023-07-08T05:13:44;6.78;;;2.55;;
34930;SDS011;21134;49.646;8.560;2023-07-08T05:16:11;5.35;;;2.33;;
34930;SDS011;21134;49.646;8.560;2023-07-08T05:18:37;7.97;;;3.40;;
34930;SDS011;21134;49.646;8.560;2023-07-08T05:21:05;5.40;;;3.42;;
34930;SDS011;21134;49.646;8.560;2023-07-08T05:23:33;6.45;;;3.58;;
34930;SDS011;21134;49.646;8.560;2023-07-08T05:26:00;5.53;;;2.40;;
34930;SDS011;21134;49.646;8.560;2023-07-08T05:28:26;6.13;;;3.15;;
34930;SDS011;21134;49.646;8.560;2023-07-08T05:30:53;7.93;;;3.17;;
34930;SDS011;21134;49.646;8.560;2023-07-08T05:33:20;9.73;;;3.30;;
34930;SDS011;21134;49.646;8.560;2023-07-08T05:35:47;5.45;;;2.75;;
34930;SDS011;21134;49.646;8.560;2023-07-08T05:38:15;6.78;;;3.15;;
34930;SDS011;21134;49.646;8.560;2023-07-08T05:40:41;11.10;;;3.50;;
34930;SDS011;21134;49.646;8.560;2023-07-08T05:43:08;6.72;;;3.33;;
34930;SDS011;21134;49.646;8.560;2023-07-08T05:45:35;8.63;;;2.83;;
34930;SDS011;21134;49.646;8.560;2023-07-08T05:48:01;8.07;;;3.25;;
34930;SDS011;21134;49.646;8.560;2023-07-08T05:50:28;6.43;;;2.70;;
34930;SDS011;21134;49.646;8.560;2023-07-08T05:52:54;9.10;;;3.50;;
34930;SDS011;21134;49.646;8.560;2023-07-08T05:55:22;4.38;;;2.97;;
34930;SDS011;21134;49.646;8.560;2023-07-08T05:57:49;10.52;;;3.38;;
34930;SDS011;21134;49.646;8.560;2023-07-08T06:00:15;6.15;;;3.20;;
34930;SDS011;21134;49.646;8.560;2023-07-08T06:02:42;4.97;;;2.67;;
34930;SDS011;21134;49.646;8.560;2023-07-08T06:05:08;7.88;;;2.90;;
34930;SDS011;21134;49.646;8.560;2023-07-08T06:07:35;6.30;;;2.95;;
34930;SDS011;21134;49.646;8.560;2023-07-08T06:10:02;4.22;;;2.65;;
34930;SDS011;21134;49.646;8.560;2023-07-08T06:12:30;5.97;;;2.67;;
34930;SDS011;21134;49.646;8.560;2023-07-08T06:14:57;6.13;;;2.42;;
34930;SDS011;21134;49.646;8.560;2023-07-08T06:17:23;4.43;;;2.15;;
34930;SDS011;21134;49.646;8.560;2023-07-08T06:19:50;4.05;;;2.65;;
34930;SDS011;21134;49.646;8.560;2023-07-08T06:22:16;4.47;;;2.67;;
34930;SDS011;21134;49.646;8.560;2023-07-08T06:24:43;3.47;;;2.00;;
34930;SDS011;21134;49.646;8.560;2023-07-08T06:27:09;8.18;;;2.30;;
34930;SDS011;21134;49.646;8.560;2023-07-08T06:29:37;4.68;;;2.42;;
34930;SDS011;21134;49.646;8.560;2023-07-08T06:32:04;7.53;;;3.08;;
34930;SDS011;21134;49.646;8.560;2023-07-08T06:34:32;8.23;;;2.85;;
34930;SDS011;21134;49.646;8.560;2023-07-08T06:36:58;7.47;;;2.95;;
34930;SDS011;21134;49.646;8.560;2023-07-08T06:39:25;9.20;;;2.95;;
34930;SDS011;21134;49.646;8.560;2023-07-08T06:41:51;5.30;;;2.45;;
34930;SDS011;21134;49.646;8.560;2023-07-08T06:44:18;9.60;;;3.47;;
34930;SDS011;21134;49.646;8.560;2023-07-08T06:46:46;5.72;;;2.90;;
34930;SDS011;21134;49.646;8.560;2023-07-08T06:49:12;6.72;;;2.88;;
34930;SDS011;21134;49.646;8.560;2023-07-08T06:51:39;8.40;;;2.80;;
34930;SDS011;21134;49.646;8.560;2023-07-08T06:54:05;9.00;;;3.83;;
34930;SDS011;21134;49.646;8.560;2023-07-08T06:56:36;6.82;;;2.85;;
34930;SDS011;21134;49.646;8.560;2023-07-08T06:59:03;12.05;;;3.85;;
34930;SDS011;21134;49.646;8.560;2023-07-08T07:01:29;5.95;;;3.03;;
34930;SDS011;21134;49.646;8.560;2023-07-08T07:03:57;5.50;;;2.67;;
34930;SDS011;21134;49.646;8.560;2023-07-08T07:06:24;7.82;;;3.20;;
34930;SDS011;21134;49.646;8.560;2023-07-08T07:08:50;4.80;;;2.95;;
34930;SDS011;21134;49.646;8.560;2023-07-08T07:11:17;5.53;;;3.08;;
34930;SDS011;21134;49.646;8.560;2023-07-08T07:13:44;4.75;;;2.58;;
34930;SDS011;21134;49.646;8.560;2023-07-08T07:16:11;7.43;;;3.15;;
34930;SDS011;21134;49.646;8.560;2023-07-08T07:18:37;5.65;;;2.85;;
34930;SDS011;21134;49.646;8.560;2023-07-08T07:21:05;5.53;;;3.20;;
34930;SDS011;21134;49.646;8.560;2023-07-08T07:23:32;8.05;;;3.28;;
34930;SDS011;21134;49.646;8.560;2023-07-08T07:25:58;8.20;;;2.85;;
34930;SDS011;21134;49.646;8.560;2023-07-08T07:28:25;7.68;;;3.30;;
34930;SDS011;21134;49.646;8.560;2023-07-08T07:30:55;8.68;;;2.65;;
34930;SDS011;21134;49.646;8.560;2023-07-08T07:33:22;3.72;;;2.30;;
34930;SDS011;21134;49.646;8.560;2023-07-08T07:35:49;3.85;;;2.47;;
34930;SDS011;21134;49.646;8.560;2023-07-08T07:38:17;6.45;;;2.97;;
34930;SDS011;21134;49.646;8.560;2023-07-08T07:40:43;5.68;;;2.40;;
34930;SDS011;21134;49.646;8.560;2023-07-08T07:43:10;6.22;;;3.00;;
34930;SDS011;21134;49.646;8.560;2023-07-08T07:45:37;5.47;;;2.40;;
34930;SDS011;21134;49.646;8.560;2023-07-08T07:48:04;3.92;;;2.30;;
34930;SDS011;21134;49.646;8.560;2023-07-08T07:50:30;4.15;;;2.33;;
34930;SDS011;21134;49.646;8.560;2023-07-08T07:52:57;3.95;;;2.38;;
34930;SDS011;21134;49.646;8.560;2023-07-08T07:55:25;9.85;;;2.92;;
34930;SDS011;21134;49.646;8.560;2023-07-08T07:57:51;5.53;;;2.65;;
34930;SDS011;21134;49.646;8.560;2023-07-08T08:00:19;4.32;;;2.83;;
34930;SDS011;21134;49.646;8.560;2023-07-08T08:02:46;13.05;;;3.97;;
34930;SDS011;21134;49.646;8.560;2023-07-08T08:05:12;9.38;;;2.70;;
34930;SDS011;21134;49.646;8.560;2023-07-08T08:07:39;4.60;;;2.40;;
34930;SDS011;21134;49.646;8.560;2023-07-08T08:10:06;4.70;;;2.55;;
34930;SDS011;21134;49.646;8.560;2023-07-08T08:12:35;4.68;;;2.15;;
34930;SDS011;21134;49.646;8.560;2023-07-08T08:15:01;3.28;;;1.85;;
34930;SDS011;21134;49.646;8.560;2023-07-08T08:17:28;6.25;;;2.45;;
34930;SDS011;21134;49.646;8.560;2023-07-08T08:19:54;4.78;;;1.42;;
34930;SDS011;21134;49.646;8.560;2023-07-08T08:22:21;3.97;;;2.35;;
34930;SDS011;21134;49.646;8.560;2023-07-08T08:24:48;4.85;;;2.22;;
34930;SDS011;21134;49.646;8.560;2023-07-08T08:27:15;3.47;;;2.20;;
34930;SDS011;21134;49.646;8.560;2023-07-08T08:29:43;2.90;;;1.95;;
34930;SDS011;21134;49.646;8.560;2023-07-08T08:32:09;4.97;;;2.20;;
34930;SDS011;21134;49.646;8.560;2023-07-08T08:34:36;3.17;;;1.85;;
34930;SDS011;21134;49.646;8.560;2023-07-08T08:37:03;2.92;;;1.92;;
34930;SDS011;21134;49.646;8.560;2023-07-08T08:39:29;2.72;;;1.15;;
34930;SDS011;21134;49.646;8.560;2023-07-08T08:41:56;10.57;;;2.30;;
34930;SDS011;21134;49.646;8.560;2023-07-08T08:44:25;2.65;;;1.60;;
34930;SDS011;21134;49.646;8.560;2023-07-08T08:46:58;2.13;;;1.38;;
34930;SDS011;21134;49.646;8.560;2023-07-08T08:49:32;6.50;;;2.15;;
34930;SDS011;21134;49.646;8.560;2023-07-08T08:52:04;2.92;;;1.75;;
34930;SDS011;21134;49.646;8.560;2023-07-08T08:54:31;5.22;;;2.05;;
34930;SDS011;21134;49.646;8.560;2023-07-08T08:56:59;2.40;;;1.75;;
34930;SDS011;21134;49.646;8.560;2023-07-08T08:59:37;3.63;;;2.05;;
34930;SDS011;21134;49.646;8.560;2023-07-08T09:02:14;5.13;;;1.80;;
34930;SDS011;21134;49.646;8.560;2023-07-08T09:04:51;7.65;;;2.40;;
34930;SDS011;21134;49.646;8.560;2023-07-08T09:07:19;6.70;;;2.55;;
34930;SDS011;21134;49.646;8.560;2023-07-08T09:09:47;2.88;;;1.85;;
34930;SDS011;21134;49.646;8.560;2023-07-08T09:12:22;4.93;;;1.85;;
34930;SDS011;21134;49.646;8.560;2023-07-08T09:14:53;3.10;;;1.80;;
34930;SDS011;21134;49.646;8.560;2023-07-08T09:17:21;1.70;;;1.60;;
34930;SDS011;21134;49.646;8.560;2023-07-08T09:19:52;6.50;;;2.38;;
34930;SDS011;21134;49.646;8.560;2023-07-08T09:22:28;2.83;;;1.80;;
34930;SDS011;21134;49.646;8.560;2023-07-08T09:25:01;3.00;;;1.83;;
34930;SDS011;21134;49.646;8.560;2023-07-08T09:27:38;4.00;;;2.10;;
34930;SDS011;21134;49.646;8.560;2023-07-08T09:30:07;4.25;;;2.08;;
34930;SDS011;21134;49.646;8.560;2023-07-08T09:32:40;4.40;;;1.92;;
34930;SDS011;21134;49.646;8.560;2023-07-08T09:35:07;3.35;;;2.03;;
34930;SDS011;21134;49.646;8.560;2023-07-08T09:37:44;2.50;;;1.90;;
34930;SDS011;21134;49.646;8.560;2023-07-08T09:40:14;2.22;;;1.83;;
34930;SDS011;21134;49.646;8.560;2023-07-08T09:42:43;2.75;;;1.73;;
34930;SDS011;21134;49.646;8.560;2023-07-08T09:45:14;1.98;;;1.40;;
34930;SDS011;21134;49.646;8.560;2023-07-08T09:47:44;2.60;;;1.60;;
34930;SDS011;21134;49.646;8.560;2023-07-08T09:50:18;5.50;;;1.75;;
34930;SDS011;21134;49.646;8.560;2023-07-08T09:52:46;4.22;;;2.13;;
34930;SDS011;21134;49.646;8.560;2023-07-08T09:55:13;4.55;;;1.95;;
34930;SDS011;21134;49.646;8.560;2023-07-08T09:57:40;3.47;;;2.13;;
34930;SDS011;21134;49.646;8.560;2023-07-08T10:00:11;2.70;;;1.85;;
34930;SDS011;21134;49.646;8.560;2023-07-08T10:02:41;3.42;;;2.35;;
34930;SDS011;21134;49.646;8.560;2023-07-08T10:05:13;5.45;;;1.75;;
34930;SDS011;21134;49.646;8.560;2023-07-08T10:07:46;3.70;;;1.77;;
34930;SDS011;21134;49.646;8.560;2023-07-08T10:10:15;4.43;;;1.95;;
34930;SDS011;21134;49.646;8.560;2023-07-08T10:12:46;3.00;;;1.85;;
34930;SDS011;21134;49.646;8.560;2023-07-08T10:15:22;3.30;;;2.25;;
34930;SDS011;21134;49.646;8.560;2023-07-08T10:17:54;4.20;;;2.25;;
34930;SDS011;21134;49.646;8.560;2023-07-08T10:20:22;4.53;;;2.63;;
34930;SDS011;21134;49.646;8.560;2023-07-08T10:22:56;1.92;;;1.67;;
34930;SDS011;21134;49.646;8.560;2023-07-08T10:25:31;2.88;;;1.75;;
34930;SDS011;21134;49.646;8.560;2023-07-08T10:28:16;5.47;;;2.42;;
34930;SDS011;21134;49.646;8.560;2023-07-08T10:30:53;4.68;;;2.70;;
34930;SDS011;21134;49.646;8.560;2023-07-08T10:33:34;5.00;;;2.53;;
34930;SDS011;21134;49.646;8.560;2023-07-08T10:36:23;1.73;;;1.63;;
34930;SDS011;21134;49.646;8.560;2023-07-08T10:39:12;3.50;;;2.28;;
34930;SDS011;21134;49.646;8.560;2023-07-08T10:41:53;5.65;;;3.00;;
34930;SDS011;21134;49.646;8.560;2023-07-08T10:44:30;3.55;;;1.98;;
34930;SDS011;21134;49.646;8.560;2023-07-08T10:47:05;5.63;;;2.45;;
34930;SDS011;21134;49.646;8.560;2023-07-08T10:49:47;2.70;;;1.67;;
34930;SDS011;21134;49.646;8.560;2023-07-08T10:52:28;3.83;;;1.98;;
34930;SDS011;21134;49.646;8.560;2023-07-08T10:55:14;2.83;;;1.70;;
34930;SDS011;21134;49.646;8.560;2023-07-08T10:57:55;4.00;;;2.13;;
34930;SDS011;21134;49.646;8.560;2023-07-08T11:00:30;5.45;;;2.30;;
34930;SDS011;21134;49.646;8.560;2023-07-08T11:03:15;4.97;;;2.03;;
34930;SDS011;21134;49.646;8.560;2023-07-08T11:06:01;4.50;;;2.38;;
34930;SDS011;21134;49.646;8.560;2023-07-08T11:08:37;5.22;;;2.67;;
34930;SDS011;21134;49.646;8.560;2023-07-08T11:11:07;4.72;;;2.20;;
34930;SDS011;21134;49.646;8.560;2023-07-08T11:13:39;5.53;;;2.20;;
34930;SDS011;21134;49.646;8.560;2023-07-08T11:16:13;7.18;;;2.15;;
34930;SDS011;21134;49.646;8.560;2023-07-08T11:18:47;4.82;;;1.98;;
34930;SDS011;21134;49.646;8.560;2023-07-08T11:21:18;3.33;;;1.65;;
34930;SDS011;21134;49.646;8.560;2023-07-08T11:23:50;3.40;;;1.83;;
34930;SDS011;21134;49.646;8.560;2023-07-08T11:26:23;11.25;;;2.05;;
34930;SDS011;21134;49.646;8.560;2023-07-08T11:28:56;5.60;;;2.00;;
34930;SDS011;21134;49.646;8.560;2023-07-08T11:31:24;3.88;;;2.00;;
34930;SDS011;21134;49.646;8.560;2023-07-08T11:33:53;5.03;;;1.80;;
34930;SDS011;21134;49.646;8.560;2023-07-08T11:36:22;2.38;;;1.60;;
34930;SDS011;21134;49.646;8.560;2023-07-08T11:38:53;4.53;;;1.80;;
34930;SDS011;21134;49.646;8.560;2023-07-08T11:41:21;2.83;;;1.92;;
34930;SDS011;21134;49.646;8.560;2023-07-08T11:43:50;2.17;;;1.48;;
34930;SDS011;21134;49.646;8.560;2023-07-08T11:46:19;2.72;;;1.60;;
34930;SDS011;21134;49.646;8.560;2023-07-08T11:48:47;3.47;;;1.55;;
34930;SDS011;21134;49.646;8.560;2023-07-08T11:51:17;3.22;;;1.92;;
34930;SDS011;21134;49.646;8.560;2023-07-08T11:53:48;4.05;;;1.90;;
34930;SDS011;21134;49.646;8.560;2023-07-08T11:56:22;3.60;;;2.15;;
34930;SDS011;21134;49.646;8.560;2023-07-08T11:58:58;3.72;;;1.85;;
34930;SDS011;21134;49.646;8.560;2023-07-08T12:01:32;2.35;;;1.58;;
34930;SDS011;21134;49.646;8.560;2023-07-08T12:04:24;2.55;;;1.50;;
34930;SDS011;21134;49.646;8.560;2023-07-08T12:09:46;3.33;;;1.55;;
34930;SDS011;21134;49.646;8.560;2023-07-08T12:12:17;3.25;;;1.63;;
34930;SDS011;21134;49.646;8.560;2023-07-08T12:14:49;5.43;;;2.38;;
34930;SDS011;21134;49.646;8.560;2023-07-08T12:17:16;3.05;;;2.15;;
34930;SDS011;21134;49.646;8.560;2023-07-08T12:19:43;1.60;;;1.45;;
34930;SDS011;21134;49.646;8.560;2023-07-08T12:22:13;3.33;;;1.50;;
34930;SDS011;21134;49.646;8.560;2023-07-08T12:24:40;1.83;;;1.30;;
34930;SDS011;21134;49.646;8.560;2023-07-08T12:27:08;4.30;;;1.23;;
34930;SDS011;21134;49.646;8.560;2023-07-08T12:29:37;2.75;;;1.60;;
34930;SDS011;21134;49.646;8.560;2023-07-08T12:32:04;2.00;;;1.42;;
34930;SDS011;21134;49.646;8.560;2023-07-08T12:34:32;4.55;;;1.88;;
34930;SDS011;21134;49.646;8.560;2023-07-08T12:36:58;1.92;;;1.40;;
34930;SDS011;21134;49.646;8.560;2023-07-08T12:39:25;3.67;;;1.58;;
34930;SDS011;21134;49.646;8.560;2023-07-08T12:41:52;2.30;;;1.83;;
34930;SDS011;21134;49.646;8.560;2023-07-08T12:44:19;3.15;;;1.80;;
34930;SDS011;21134;49.646;8.560;2023-07-08T12:46:50;4.45;;;1.83;;
34930;SDS011;21134;49.646;8.560;2023-07-08T12:49:19;6.85;;;2.47;;
34930;SDS011;21134;49.646;8.560;2023-07-08T12:51:47;4.05;;;1.73;;
34930;SDS011;21134;49.646;8.560;2023-07-08T12:54:14;3.17;;;1.70;;
34930;SDS011;21134;49.646;8.560;2023-07-08T12:56:44;2.17;;;1.98;;
34930;SDS011;21134;49.646;8.560;2023-07-08T12:59:13;2.30;;;1.65;;
34930;SDS011;21134;49.646;8.560;2023-07-08T13:01:45;2.30;;;1.55;;
34930;SDS011;21134;49.646;8.560;2023-07-08T13:04:15;2.70;;;1.33;;
34930;SDS011;21134;49.646;8.560;2023-07-08T13:06:43;3.03;;;1.90;;
34930;SDS011;21134;49.646;8.560;2023-07-08T13:09:18;3.03;;;1.63;;
34930;SDS011;21134;49.646;8.560;2023-07-08T13:11:57;3.67;;;1.63;;
34930;SDS011;21134;49.646;8.560;2023-07-08T13:14:29;5.65;;;1.75;;
34930;SDS011;21134;49.646;8.560;2023-07-08T13:16:55;3.70;;;2.00;;
34930;SDS011;21134;49.646;8.560;2023-07-08T13:19:24;0.93;;;0.88;;
34930;SDS011;21134;49.646;8.560;2023-07-08T13:21:51;2.42;;;1.30;;
34930;SDS011;21134;49.646;8.560;2023-07-08T13:24:17;1.65;;;1.52;;
34930;SDS011;21134;49.646;8.560;2023-07-08T13:26:44;3.60;;;1.55;;
34930;SDS011;21134;49.646;8.560;2023-07-08T13:29:14;2.50;;;1.13;;
34930;SDS011;21134;49.646;8.560;2023-07-08T13:31:43;10.88;;;1.52;;
34930;SDS011;21134;49.646;8.560;2023-07-08T13:34:15;1.92;;;1.58;;
34930;SDS011;21134;49.646;8.560;2023-07-08T13:36:45;2.70;;;1.65;;
34930;SDS011;21134;49.646;8.560;2023-07-08T13:39:15;2.60;;;1.90;;
34930;SDS011;21134;49.646;8.560;2023-07-08T13:41:46;4.03;;;2.03;;
34930;SDS011;21134;49.646;8.560;2023-07-08T13:44:12;1.48;;;1.38;;
34930;SDS011;21134;49.646;8.560;2023-07-08T13:46:43;1.90;;;1.70;;
34930;SDS011;21134;49.646;8.560;2023-07-08T13:49:12;2.45;;;1.55;;
34930;SDS011;21134;49.646;8.560;2023-07-08T13:51:41;5.65;;;2.28;;
34930;SDS011;21134;49.646;8.560;2023-07-08T13:54:19;3.25;;;1.52;;
34930;SDS011;21134;49.646;8.560;2023-07-08T13:56:47;2.47;;;1.60;;
34930;SDS011;21134;49.646;8.560;2023-07-08T13:59:16;1.95;;;1.55;;
34930;SDS011;21134;49.646;8.560;2023-07-08T14:01:45;2.88;;;2.03;;
34930;SDS011;21134;49.646;8.560;2023-07-08T14:04:12;6.13;;;2.28;;
34930;SDS011;21134;49.646;8.560;2023-07-08T14:06:42;4.47;;;1.80;;
34930;SDS011;21134;49.646;8.560;2023-07-08T14:09:11;2.42;;;1.60;;
34930;SDS011;21134;49.646;8.560;2023-07-08T14:11:42;3.63;;;1.92;;
34930;SDS011;21134;49.646;8.560;2023-07-08T14:14:09;2.35;;;1.70;;
34930;SDS011;21134;49.646;8.560;2023-07-08T14:16:37;3.60;;;2.03;;
34930;SDS011;21134;49.646;8.560;2023-07-08T14:19:07;4.00;;;1.48;;
34930;SDS011;21134;49.646;8.560;2023-07-08T14:21:40;2.35;;;1.75;;
34930;SDS011;21134;49.646;8.560;2023-07-08T14:24:10;4.05;;;1.50;;
34930;SDS011;21134;49.646;8.560;2023-07-08T14:26:38;3.38;;;1.60;;
34930;SDS011;21134;49.646;8.560;2023-07-08T14:29:08;3.53;;;1.60;;
34930;SDS011;21134;49.646;8.560;2023-07-08T14:31:35;2.15;;;1.83;;
34930;SDS011;21134;49.646;8.560;2023-07-08T14:34:03;2.58;;;1.85;;
34930;SDS011;21134;49.646;8.560;2023-07-08T14:36:32;2.47;;;1.67;;
34930;SDS011;21134;49.646;8.560;2023-07-08T14:38:59;3.13;;;1.92;;
34930;SDS011;21134;49.646;8.560;2023-07-08T14:41:26;3.95;;;1.65;;
34930;SDS011;21134;49.646;8.560;2023-07-08T14:43:54;4.10;;;1.67;;
34930;SDS011;21134;49.646;8.560;2023-07-08T14:46:21;2.80;;;1.77;;
34930;SDS011;21134;49.646;8.560;2023-07-08T14:48:47;6.45;;;2.15;;
34930;SDS011;21134;49.646;8.560;2023-07-08T14:51:14;3.60;;;1.90;;
34930;SDS011;21134;49.646;8.560;2023-07-08T14:53:40;4.80;;;1.75;;
34930;SDS011;21134;49.646;8.560;2023-07-08T14:56:11;2.67;;;1.75;;
34930;SDS011;21134;49.646;8.560;2023-07-08T14:58:43;2.95;;;1.92;;
34930;SDS011;21134;49.646;8.560;2023-07-08T15:01:14;2.70;;;1.73;;